Time;durP1;ratioP1;P1;durP2;ratioP2;P2;SDS_P1;SDS_P2;PMS_P1;PMS_P2;Temp;Humidity;BMP_temperature;BMP_pressure;BME280_temperature;BME280_humidity;BME280_pressure;Samples;Min_cycle;Max_cycle;Signal;HPM_P1;HPM_P2
2022/03/31 00:01:13;;;;;;;8.90;6.90;;;;;;;3.32;83.28;97051.16;221103;1273;24019;-72
2022/03/31 00:06:21;;;;;;;11.50;9.30;;;;;;;3.27;83.38;97053.39;221111;1273;22689;-73
2022/03/31 00:11:24;;;;;;;14.70;10.30;;;;;;;3.22;83.46;97047.50;220854;1274;25310;-73
2022/03/31 00:16:28;;;;;;;11.40;8.60;;;;;;;3.20;83.61;97048.70;221227;1274;23776;-73
2022/03/31 00:21:37;;;;;;;11.90;9.00;;;;;;;3.18;83.53;97045.86;220984;1274;23808;-74
2022/03/31 00:26:40;;;;;;;12.40;8.00;;;;;;;3.13;83.51;97049.05;221090;1274;22554;-74
2022/03/31 00:45:47;;;;;;;14.20;10.80;;;;;;;2.95;83.78;97055.91;220992;1274;25298;-73
2022/03/31 00:51:16;;;;;;;17.90;13.80;;;;;;;2.96;83.67;97057.42;220847;1274;25386;-73
2022/03/31 00:56:30;;;;;;;16.80;12.90;;;;;;;2.94;83.65;97052.84;221053;1274;22525;-73
2022/03/31 01:01:56;;;;;;;14.80;11.90;;;;;;;2.93;83.66;97052.16;221080;1275;22466;-73
2022/03/31 01:07:03;;;;;;;18.70;14.00;;;;;;;2.94;83.62;97058.14;221039;1274;24286;-73
2022/03/31 01:12:05;;;;;;;17.40;13.50;;;;;;;2.95;83.68;97055.79;220710;1276;23693;-73
2022/03/31 01:17:54;;;;;;;16.60;12.90;;;;;;;2.95;83.73;97049.67;220781;1274;25382;-73
2022/03/31 01:23:19;;;;;;;21.30;15.40;;;;;;;2.92;83.78;97054.30;221325;1273;22726;-73
2022/03/31 01:28:24;;;;;;;13.70;10.70;;;;;;;2.89;83.73;97053.37;221215;1273;22739;-73
2022/03/31 01:33:31;;;;;;;13.20;11.00;;;;;;;2.86;83.75;97055.98;220952;1273;22658;-74
2022/03/31 01:38:39;;;;;;;14.80;12.30;;;;;;;2.88;83.99;97060.56;221087;1274;22570;-74
2022/03/31 01:44:07;;;;;;;19.10;12.70;;;;;;;2.90;83.93;97064.93;221198;1274;24925;-73
2022/03/31 01:49:19;;;;;;;9.90;8.20;;;;;;;2.88;83.79;97066.66;220983;1274;22548;-73
2022/03/31 01:54:41;;;;;;;13.80;10.30;;;;;;;2.82;83.96;97067.89;221122;1273;23878;-72
2022/03/31 01:59:46;;;;;;;12.30;9.90;;;;;;;2.77;83.84;97066.02;221163;1274;22533;-73
2022/03/31 02:05:00;;;;;;;17.70;13.30;;;;;;;2.74;83.92;97066.90;221362;1273;25267;-72
2022/03/31 02:10:46;;;;;;;15.00;11.30;;;;;;;2.69;83.82;97075.14;221070;1274;23130;-73
2022/03/31 02:16:00;;;;;;;12.20;9.30;;;;;;;2.65;84.19;97069.79;221125;1274;22531;-73
2022/03/31 02:21:07;;;;;;;19.30;14.50;;;;;;;2.65;84.28;97075.77;221332;1274;22482;-73
2022/03/31 02:26:25;;;;;;;18.30;14.20;;;;;;;2.64;84.25;97079.30;220994;1274;22632;-73
2022/03/31 02:31:36;;;;;;;23.90;17.40;;;;;;;2.65;84.40;97078.13;220993;1274;23217;-73
2022/03/31 02:36:40;;;;;;;21.60;18.10;;;;;;;2.63;84.38;97077.84;221083;1274;22492;-72
2022/03/31 02:42:24;;;;;;;25.60;18.20;;;;;;;2.62;84.59;97069.65;221268;1274;22485;-73
2022/03/31 02:48:16;;;;;;;;;;;;;;;;;;;;;
2022/03/31 03:01:43;;;;;;;14.70;11.80;;;;;;;2.59;84.64;97073.32;221214;1274;22556;-73
2022/03/31 03:14:55;;;;;;;;;;;;;;;;;;;;;
2022/03/31 03:20:47;;;;;;;8.10;6.90;;;;;;;2.58;84.61;97064.13;221157;1274;22623;-73
2022/03/31 03:26:55;;;;;;;10.80;8.80;;;;;;;2.54;84.35;97066.49;220999;1274;25260;-73
2022/03/31 03:32:31;;;;;;;11.80;9.70;;;;;;;2.48;84.55;97069.02;221218;1274;25866;-73
2022/03/31 03:44:35;;;;;;;;;;;;;;;;;;;;;
2022/03/31 03:50:06;;;;;;;15.50;11.80;;;;;;;2.55;85.16;97076.36;221191;1273;25402;-72
2022/03/31 03:55:28;;;;;;;15.40;11.70;;;;;;;2.54;84.93;97082.09;221284;1274;23837;-72
2022/03/31 04:13:33;;;;;;;19.70;14.40;;;;;;;2.40;85.10;97083.46;220641;1276;22740;-73
2022/03/31 04:19:00;;;;;;;23.50;16.20;;;;;;;2.39;85.07;97084.42;221266;1273;22487;-72
2022/03/31 04:24:04;;;;;;;20.30;16.00;;;;;;;2.39;85.27;97080.89;221215;1274;24230;-73
2022/03/31 04:29:16;;;;;;;24.20;16.80;;;;;;;2.40;85.20;97080.66;220882;1273;24226;-72
2022/03/31 04:34:55;;;;;;;;;;;;;;;;;;;;;
2022/03/31 04:40:02;;;;;;;17.60;13.80;;;;;;;2.39;85.17;97066.89;221244;1273;22542;-73
2022/03/31 04:46:15;;;;;;;22.50;15.30;;;;;;;2.31;84.92;97075.66;221337;1273;23109;-72
2022/03/31 04:51:37;;;;;;;22.20;14.70;;;;;;;2.26;85.06;97082.45;221088;1273;25331;-72
2022/03/31 04:57:00;;;;;;;18.40;13.50;;;;;;;2.28;85.25;97095.55;221064;1273;22610;-73
2022/03/31 05:02:55;;;;;;;23.40;16.80;;;;;;;2.32;85.23;97101.65;220889;1274;22481;-73
2022/03/31 05:16:10;;;;;;;17.70;12.30;;;;;;;2.35;84.74;97099.89;220489;1274;23693;-74
2022/03/31 05:26:57;;;;;;;21.70;15.50;;;;;;;2.21;84.72;97110.55;221136;1273;22565;-71
2022/03/31 05:32:00;;;;;;;18.00;12.60;;;;;;;2.16;84.74;97119.19;221208;1273;22588;-72
2022/03/31 05:37:05;;;;;;;19.50;14.60;;;;;;;2.15;84.88;97126.97;221251;1273;22643;-73
2022/03/31 05:42:13;;;;;;;16.10;12.20;;;;;;;2.15;84.71;97132.20;221075;1273;22577;-71
2022/03/31 05:47:18;;;;;;;19.70;14.20;;;;;;;2.18;84.77;97138.36;221883;1273;22802;-72
2022/03/31 05:52:23;;;;;;;23.80;16.60;;;;;;;2.17;84.68;97138.52;221933;1273;22587;-71
2022/03/31 05:57:32;;;;;;;25.50;16.30;;;;;;;2.18;84.64;97132.30;221815;1273;22547;-71
2022/03/31 06:02:57;;;;;;;;;;;;;;;;;;;;;
2022/03/31 06:08:02;;;;;;;19.40;14.50;;;;;;;2.29;84.98;97126.73;222036;1273;23196;-71
2022/03/31 06:13:07;;;;;;;17.20;13.40;;;;;;;2.35;84.53;97130.28;221669;1273;22483;-72
2022/03/31 06:19:05;;;;;;;19.50;15.10;;;;;;;2.38;84.54;97125.40;221839;1273;22593;-72
2022/03/31 06:24:35;;;;;;;26.10;18.80;;;;;;;2.46;84.54;97120.27;221785;1273;22552;-73
2022/03/31 06:29:49;;;;;;;21.80;16.90;;;;;;;2.50;84.42;97119.55;221578;1273;24122;-73
2022/03/31 06:35:58;;;;;;;15.30;11.70;;;;;;;2.53;84.58;97116.52;221585;1273;22570;-72
2022/03/31 06:41:23;;;;;;;15.70;12.60;;;;;;;2.54;84.45;97114.13;221519;1273;22579;-72
2022/03/31 06:46:37;;;;;;;21.00;15.30;;;;;;;2.57;84.55;97116.79;221645;1273;22536;-73
2022/03/31 06:52:20;;;;;;;20.30;15.60;;;;;;;2.61;84.35;97126.03;221887;1273;24273;-72
2022/03/31 07:03:16;;;;;;;34.60;23.40;;;;;;;2.67;84.46;97130.73;221859;1273;24291;-73
2022/03/31 07:08:18;;;;;;;27.70;20.90;;;;;;;2.68;84.45;97134.80;221961;1273;22473;-73
2022/03/31 07:13:46;;;;;;;25.90;18.70;;;;;;;2.76;84.23;97134.52;221697;1273;24245;-73
2022/03/31 07:19:01;;;;;;;29.20;21.00;;;;;;;2.84;84.36;97127.20;221460;1273;23858;-73
2022/03/31 07:24:07;;;;;;;27.30;21.10;;;;;;;2.91;84.41;97131.59;217672;1273;5485195;-73
2022/03/31 07:29:43;;;;;;;26.00;20.50;;;;;;;3.03;84.42;97140.73;221749;1273;22729;-72
2022/03/31 07:35:10;;;;;;;27.60;20.90;;;;;;;3.11;83.93;97142.46;221923;1273;22869;-71
2022/03/31 07:40:30;;;;;;;22.00;16.70;;;;;;;3.21;84.13;97149.20;221614;1273;25372;-72
2022/03/31 07:46:13;;;;;;;;;;;;;;;;;;;;;
2022/03/31 07:52:18;;;;;;;23.00;17.10;;;;;;;3.32;83.75;97147.18;221495;1273;24228;-72
2022/03/31 08:04:11;;;;;;;28.80;21.40;;;;;;;3.44;83.56;97149.96;221560;1272;25322;-72
2022/03/31 08:09:23;;;;;;;27.60;21.50;;;;;;;3.48;83.53;97149.48;221952;1273;22680;-72
2022/03/31 08:15:03;;;;;;;30.50;24.20;;;;;;;3.55;83.64;97148.85;221803;1273;22543;-71
2022/03/31 08:20:34;;;;;;;18.30;14.60;;;;;;;3.65;83.22;97160.39;222102;1273;25376;-72
2022/03/31 08:25:41;;;;;;;22.30;18.70;;;;;;;3.55;82.93;97165.30;221910;1272;24457;-71
2022/03/31 08:30:47;;;;;;;32.50;22.60;;;;;;;3.53;82.92;97171.67;221518;1273;22471;-71
2022/03/31 08:36:04;;;;;;;30.60;23.80;;;;;;;3.56;83.02;97171.48;221725;1273;23805;-70
2022/03/31 08:41:10;;;;;;;26.00;20.30;;;;;;;3.64;83.19;97163.73;221575;1272;24297;-71
2022/03/31 08:46:30;;;;;;;29.10;21.30;;;;;;;3.67;83.01;97168.45;221814;1273;22685;-71
2022/03/31 08:51:46;;;;;;;21.60;16.00;;;;;;;3.65;82.82;97173.15;221702;1273;22691;-71
2022/03/31 08:56:54;;;;;;;31.00;22.40;;;;;;;3.68;82.87;97175.66;221540;1273;25316;-72
2022/03/31 09:02:25;;;;;;;35.80;25.10;;;;;;;3.71;82.99;97179.34;221665;1273;25325;-72
2022/03/31 09:07:28;;;;;;;24.00;17.90;;;;;;;3.70;82.72;97185.06;221679;1273;25934;-73
2022/03/31 09:12:50;;;;;;;33.40;24.80;;;;;;;3.70;82.77;97190.05;221795;1272;24119;-73
2022/03/31 09:18:47;;;;;;;;;;;;;;;;;;;;;
2022/03/31 09:24:09;;;;;;;;;;;;;;;;;;;;;
2022/03/31 09:29:29;;;;;;;27.70;20.90;;;;;;;3.80;82.56;97192.69;221647;1273;24294;-72
2022/03/31 09:35:20;;;;;;;31.60;24.00;;;;;;;3.82;82.42;97197.80;221798;1273;25301;-72
2022/03/31 09:47:07;;;;;;;34.10;25.30;;;;;;;3.76;82.30;97187.38;221796;1273;22578;-72
2022/03/31 09:53:17;;;;;;;43.10;29.40;;;;;;;3.75;82.45;97173.98;221619;1273;25387;-73
2022/03/31 09:59:09;;;;;;;39.60;28.80;;;;;;;3.65;82.01;97168.22;221401;1273;22723;-73
2022/03/31 10:05:17;;;;;;;;;;;;;;;;;;;;;
2022/03/31 10:11:26;;;;;;;32.10;23.40;;;;;;;3.69;82.65;97156.30;222820;1273;22689;-73
2022/03/31 10:17:25;;;;;;;;;;;;;;;;;;;;;
2022/03/31 10:28:42;;;;;;;34.90;23.90;;;;;;;3.60;82.28;97140.31;223233;1271;22551;-74
2022/03/31 10:33:52;;;;;;;33.30;24.00;;;;;;;3.64;82.58;97147.05;222946;1273;22575;-73
2022/03/31 10:39:06;;;;;;;36.80;23.50;;;;;;;3.70;82.56;97146.55;226011;1273;26448;-72
2022/03/31 10:44:32;;;;;;;22.00;16.90;;;;;;;3.71;82.24;97148.43;226052;1273;24198;-73
2022/03/31 10:49:47;;;;;;;;;;;;;;;;;;;;;
2022/03/31 10:55:14;;;;;;;35.20;23.60;;;;;;;3.66;82.22;97147.23;226128;1272;24433;-74
2022/03/31 11:00:22;;;;;;;26.30;19.10;;;;;;;3.71;82.21;97144.10;225994;1273;22535;-73
2022/03/31 11:06:09;;;;;;;34.10;22.40;;;;;;;3.73;82.23;97142.21;225957;1273;24444;-73
2022/03/31 11:11:32;;;;;;;26.60;20.20;;;;;;;3.78;82.25;97140.89;226023;1273;25171;-72
2022/03/31 11:16:39;;;;;;;37.90;27.10;;;;;;;3.76;81.95;97149.19;226011;1273;24510;-73
2022/03/31 11:22:27;;;;;;;32.00;20.60;;;;;;;3.77;82.10;97143.66;225652;1274;24387;-73
2022/03/31 11:27:59;;;;;;;37.20;25.90;;;;;;;3.81;81.97;97144.10;225906;1272;22446;-74
2022/03/31 11:33:10;;;;;;;43.60;28.80;;;;;;;3.82;82.09;97144.11;226003;1273;24251;-73
2022/03/31 11:38:17;;;;;;;41.50;26.80;;;;;;;3.87;82.17;97140.79;226040;1271;22428;-73
2022/03/31 11:43:31;;;;;;;37.50;23.60;;;;;;;3.92;82.10;97133.89;225912;1273;24503;-72
2022/03/31 11:48:45;;;;;;;;;;;;;;;3.90;81.84;97131.48;223478;1273;22539;-73
2022/03/31 11:53:52;;;;;;;;;;;;;;;3.86;81.93;97121.20;221686;1273;22549;-72
2022/03/31 11:59:20;;;;;;;;;;;;;;;;;;;;;
2022/03/31 12:04:54;;;;;;;40.90;28.20;;;;;;;3.80;82.16;97109.93;221795;1273;22554;-72
2022/03/31 12:10:21;;;;;;;39.40;27.50;;;;;;;3.82;81.84;97099.84;221218;1273;24196;-72
2022/03/31 12:15:33;;;;;;;46.30;31.20;;;;;;;3.81;82.06;97094.08;221339;1273;25401;-71
2022/03/31 12:20:42;;;;;;;42.60;28.40;;;;;;;3.77;82.09;97094.98;221673;1273;25334;-73
2022/03/31 12:25:48;;;;;;;46.30;30.30;;;;;;;3.75;82.08;97098.08;221720;1274;24339;-72
2022/03/31 12:31:53;;;;;;;35.70;23.70;;;;;;;3.77;82.28;97091.95;221528;1273;22532;-73
2022/03/31 12:37:06;;;;;;;34.20;24.20;;;;;;;3.79;82.04;97084.79;221661;1273;22738;-71
2022/03/31 12:42:15;;;;;;;39.20;26.50;;;;;;;3.79;82.14;97075.35;221715;1273;25318;-71
2022/03/31 12:47:47;;;;;;;40.50;27.60;;;;;;;3.84;82.18;97074.92;221515;1273;22580;-72
2022/03/31 12:53:05;;;;;;;31.10;21.20;;;;;;;3.85;82.12;97071.15;221441;1274;24176;-72
2022/03/31 12:59:22;;;;;;;32.00;20.40;;;;;;;3.78;82.19;97073.56;221705;1273;22476;-72
2022/03/31 13:05:01;;;;;;;42.90;26.50;;;;;;;3.75;82.36;97068.41;221592;1274;22531;-72
2022/03/31 13:10:08;;;;;;;42.70;27.70;;;;;;;3.77;82.40;97064.16;221762;1273;22838;-71
2022/03/31 13:15:35;;;;;;;34.00;22.60;;;;;;;3.76;82.51;97068.03;221386;1273;23360;-71
2022/03/31 13:20:40;;;;;;;35.60;25.30;;;;;;;3.75;82.59;97063.64;222110;1274;22589;-73
2022/03/31 13:25:47;;;;;;;55.50;33.60;;;;;;;3.75;82.83;97058.08;222315;1274;22708;-73
2022/03/31 13:30:49;;;;;;;34.20;23.50;;;;;;;3.79;82.82;97062.11;222146;1273;22672;-73
2022/03/31 13:36:35;;;;;;;28.60;19.30;;;;;;;3.82;82.85;97055.70;222869;1274;22567;-73
2022/03/31 13:42:05;;;;;;;26.30;18.10;;;;;;;3.81;82.55;97050.48;222216;1274;25323;-73
2022/03/31 13:47:44;;;;;;;23.80;18.00;;;;;;;3.69;82.78;97042.16;222424;1273;22770;-71
2022/03/31 14:05:13;;;;;;;22.80;16.30;;;;;;;3.56;83.02;97030.42;221549;1273;22487;-74
2022/03/31 14:16:40;;;;;;;24.50;16.40;;;;;;;3.47;83.09;97029.64;221027;1275;22579;-74
2022/03/31 14:21:53;;;;;;;20.40;14.70;;;;;;;3.51;83.36;97024.19;220766;1276;24214;-74
2022/03/31 14:26:56;;;;;;;20.70;15.00;;;;;;;3.57;83.36;97022.52;220716;1276;22552;-74
2022/03/31 14:31:59;;;;;;;28.60;19.60;;;;;;;3.56;83.19;97018.13;220770;1274;22781;-75
2022/03/31 14:37:05;;;;;;;21.30;14.50;;;;;;;3.48;83.07;97020.58;220733;1276;24277;-75
2022/03/31 14:42:25;;;;;;;27.90;19.20;;;;;;;3.31;82.99;97019.88;220635;1275;22607;-74
2022/03/31 14:47:32;;;;;;;27.10;18.80;;;;;;;3.14;83.21;97019.73;220557;1275;22617;-75
2022/03/31 14:53:21;;;;;;;28.00;19.00;;;;;;;3.00;83.57;97016.49;220820;1274;22840;-74
2022/03/31 14:58:29;;;;;;;36.70;22.90;;;;;;;2.94;83.93;97017.19;220642;1276;25219;-74
2022/03/31 15:03:55;;;;;;;31.00;20.70;;;;;;;2.91;83.86;97017.32;220732;1276;22576;-75
2022/03/31 15:14:30;;;;;;;30.10;19.50;;;;;;;2.88;83.92;97002.59;221015;1274;22530;-74
2022/03/31 15:14:32;;;;;;;21.70;16.30;;;;;;;2.88;84.37;96999.80;220987;1274;24270;-75
2022/03/31 15:19:55;;;;;;;20.90;13.60;;;;;;;2.85;83.97;96993.42;220925;1274;25221;-76
2022/03/31 15:24:57;;;;;;;27.20;17.50;;;;;;;2.80;84.09;96993.27;220773;1275;24200;-75
2022/03/31 15:30:16;;;;;;;25.30;17.30;;;;;;;2.78;84.34;96998.30;220689;1274;22481;-75
2022/03/31 15:35:39;;;;;;;23.90;16.50;;;;;;;2.71;84.00;96998.13;221066;1274;22475;-75
2022/03/31 15:40:56;;;;;;;27.00;17.50;;;;;;;2.58;84.23;96998.20;221016;1274;25374;-75
2022/03/31 15:46:30;;;;;;;;;;;;;;;2.48;84.41;96993.42;221182;1275;23119;-75
2022/03/31 15:52:02;;;;;;;30.10;18.90;;;;;;;2.39;84.49;96989.02;220893;1275;25321;-75
2022/03/31 15:58:03;;;;;;;;;;;;;;;;;;;;;
2022/03/31 16:03:12;;;;;;;26.00;16.10;;;;;;;2.28;84.89;96982.52;220701;1276;24857;-75
2022/03/31 16:08:14;;;;;;;23.60;16.10;;;;;;;2.28;84.91;96981.30;220567;1275;22633;-74
2022/03/31 16:13:17;;;;;;;25.60;17.50;;;;;;;2.30;85.20;96984.87;220751;1274;22475;-75
2022/03/31 16:18:22;;;;;;;33.80;20.00;;;;;;;2.31;85.06;96984.23;221102;1274;22882;-73
2022/03/31 16:23:47;;;;;;;21.50;15.40;;;;;;;2.32;84.94;96985.59;221313;1274;24008;-74
2022/03/31 16:29:06;;;;;;;26.20;16.70;;;;;;;2.28;84.93;96988.11;221191;1274;24233;-75
2022/03/31 16:34:25;;;;;;;27.10;17.60;;;;;;;2.23;84.97;96985.47;221378;1274;23364;-74
2022/03/31 16:39:29;;;;;;;34.60;21.20;;;;;;;2.19;85.03;96988.30;221279;1274;24243;-75
2022/03/31 16:44:34;;;;;;;27.40;17.10;;;;;;;2.12;85.01;96984.08;221336;1274;23273;-74
2022/03/31 16:49:36;;;;;;;32.80;21.00;;;;;;;2.03;85.33;96983.20;221321;1274;24329;-73
2022/03/31 16:54:42;;;;;;;28.50;18.20;;;;;;;1.93;85.30;96978.25;221585;1274;23244;-73
2022/03/31 16:59:55;;;;;;;26.80;18.10;;;;;;;1.85;85.86;96984.70;221198;1274;22582;-74
2022/03/31 17:05:00;;;;;;;24.00;17.00;;;;;;;1.79;85.92;96984.17;221154;1274;25324;-74
2022/03/31 17:10:14;;;;;;;21.40;14.30;;;;;;;1.74;85.95;96988.42;220971;1273;22484;-74
2022/03/31 17:16:18;;;;;;;26.60;18.10;;;;;;;1.71;86.31;96987.71;221456;1274;25883;-74
2022/03/31 17:21:24;;;;;;;21.90;14.90;;;;;;;1.68;86.57;96985.50;221371;1274;22708;-75
2022/03/31 17:26:51;;;;;;;30.80;19.10;;;;;;;1.63;86.47;96989.55;221265;1274;22775;-75
2022/03/31 17:32:02;;;;;;;28.10;18.20;;;;;;;1.57;86.91;96981.77;220732;1274;22594;-75
2022/03/31 17:37:06;;;;;;;32.30;21.30;;;;;;;1.51;86.69;96980.33;221382;1274;22558;-77
2022/03/31 17:42:11;;;;;;;30.70;20.50;;;;;;;1.46;87.19;96981.31;220724;1276;25383;-75
2022/03/31 17:47:14;;;;;;;34.70;24.40;;;;;;;1.41;87.36;96981.29;220943;1274;25382;-76
2022/03/31 17:52:19;;;;;;;34.40;24.60;;;;;;;1.35;87.27;96977.77;221035;1274;22574;-76
2022/03/31 17:57:53;;;;;;;32.60;21.10;;;;;;;1.34;87.54;96977.70;220708;1276;22607;-75
2022/03/31 18:03:19;;;;;;;38.20;25.80;;;;;;;1.31;87.62;96977.58;220792;1275;22831;-77
2022/03/31 18:08:32;;;;;;;43.90;29.40;;;;;;;1.28;87.76;96981.14;220816;1274;22571;-76
2022/03/31 18:14:14;;;;;;;;;;;;;;;;;;;;;
2022/03/31 18:19:29;;;;;;;44.70;27.80;;;;;;;1.21;88.03;96986.29;221589;1273;25234;-76
2022/03/31 18:24:33;;;;;;;30.70;20.40;;;;;;;1.17;87.87;96986.05;221095;1273;22682;-78
2022/03/31 18:35:22;;;;;;;29.90;21.10;;;;;;;1.10;88.13;96990.41;221274;1273;25440;-75
2022/03/31 18:40:34;;;;;;;31.80;22.10;;;;;;;1.08;88.16;96990.15;220951;1274;22624;-76
2022/03/31 18:45:48;;;;;;;35.90;25.30;;;;;;;0.99;88.06;96990.81;221310;1274;22593;-75
2022/03/31 18:51:07;;;;;;;30.50;21.90;;;;;;;0.92;88.23;96994.85;221293;1273;22702;-75
2022/03/31 18:56:23;;;;;;;26.00;18.30;;;;;;;0.89;88.60;96995.27;221158;1274;25231;-76
2022/03/31 19:01:33;;;;;;;40.20;28.20;;;;;;;0.88;88.83;96995.97;221203;1274;22708;-75
2022/03/31 19:12:24;;;;;;;37.60;27.10;;;;;;;0.83;88.70;96988.39;221209;1273;25958;-76
2022/03/31 19:17:29;;;;;;;38.20;27.20;;;;;;;0.80;88.71;96986.81;221184;1274;22483;-76
2022/03/31 19:22:36;;;;;;;29.60;20.60;;;;;;;0.79;88.82;96988.77;220975;1274;24255;-77
2022/03/31 19:27:46;;;;;;;35.80;24.70;;;;;;;0.78;89.13;96980.54;220747;1273;231550;-76
2022/03/31 19:32:48;;;;;;;30.00;21.50;;;;;;;0.74;89.05;96977.46;221271;1274;25315;-77
2022/03/31 19:37:51;;;;;;;36.20;24.80;;;;;;;0.71;89.07;96972.67;221372;1273;22681;-76
2022/03/31 19:42:53;;;;;;;32.00;23.50;;;;;;;0.72;89.34;96970.50;221141;1274;25396;-77
2022/03/31 19:47:58;;;;;;;38.90;25.10;;;;;;;0.73;89.43;96965.27;221220;1274;22474;-76
2022/03/31 19:53:01;;;;;;;32.60;22.60;;;;;;;0.74;89.56;96956.37;221593;1273;25380;-76
2022/03/31 19:58:12;;;;;;;35.60;23.20;;;;;;;0.72;89.43;96954.31;221266;1274;25442;-77
2022/03/31 20:03:16;;;;;;;36.70;25.10;;;;;;;0.71;89.54;96944.94;221367;1274;25379;-76
2022/03/31 20:08:25;;;;;;;26.40;18.70;;;;;;;0.74;89.81;96937.09;221274;1274;25322;-76
2022/03/31 20:13:27;;;;;;;28.00;20.80;;;;;;;0.74;89.84;96933.80;221630;1273;22697;-77
2022/03/31 20:18:32;;;;;;;23.80;16.10;;;;;;;0.75;89.66;96932.33;221341;1274;22685;-76
2022/03/31 20:23:35;;;;;;;26.20;16.60;;;;;;;0.73;89.36;96929.33;221033;1274;22881;-76
2022/03/31 20:28:40;;;;;;;21.20;13.80;;;;;;;0.71;89.74;96925.54;220988;1274;25369;-74
2022/03/31 20:33:42;;;;;;;25.60;15.50;;;;;;;0.68;89.75;96920.60;221124;1274;25400;-77
2022/03/31 20:38:47;;;;;;;25.10;17.00;;;;;;;0.66;89.89;96917.23;221052;1274;22831;-75
2022/03/31 20:43:50;;;;;;;29.10;19.30;;;;;;;0.65;89.89;96916.45;221079;1274;22734;-76
2022/03/31 20:48:57;;;;;;;24.50;16.80;;;;;;;0.66;89.88;96910.49;221055;1274;22529;-75
2022/03/31 20:53:59;;;;;;;27.70;16.90;;;;;;;0.65;89.95;96906.17;221433;1274;22582;-75
2022/03/31 20:59:02;;;;;;;26.20;17.50;;;;;;;0.65;90.06;96901.79;221067;1274;22610;-76
2022/03/31 21:04:36;;;;;;;17.90;12.60;;;;;;;0.66;90.21;96896.41;221255;1274;25312;-76
2022/03/31 21:09:40;;;;;;;21.50;15.90;;;;;;;0.66;90.24;96896.99;221383;1273;22563;-75
2022/03/31 21:14:52;;;;;;;24.60;17.20;;;;;;;0.66;90.29;96896.25;221417;1273;22562;-76
2022/03/31 21:20:19;;;;;;;26.40;17.50;;;;;;;0.66;90.26;96893.94;221263;1273;25332;-76
2022/03/31 21:25:24;;;;;;;31.40;20.10;;;;;;;0.66;90.11;96889.19;221187;1274;22496;-76
2022/03/31 21:30:27;;;;;;;25.80;15.80;;;;;;;0.66;90.34;96886.25;221087;1274;24196;-76
2022/03/31 21:35:29;;;;;;;24.50;14.80;;;;;;;0.67;90.31;96879.54;221102;1273;22712;-75
2022/03/31 21:40:34;;;;;;;21.80;15.20;;;;;;;0.67;90.29;96877.70;220821;1273;22849;-77
2022/03/31 21:45:38;;;;;;;20.80;14.00;;;;;;;0.67;90.47;96865.63;221051;1274;22629;-76
2022/03/31 21:50:42;;;;;;;24.10;16.80;;;;;;;0.68;90.41;96865.89;220965;1273;22600;-77
2022/03/31 21:55:45;;;;;;;21.30;15.60;;;;;;;0.69;90.33;96865.73;221089;1273;22664;-77
2022/03/31 22:01:20;;;;;;;27.80;17.80;;;;;;;0.69;90.44;96861.13;221244;1273;24255;-76
2022/03/31 22:06:30;;;;;;;25.50;15.80;;;;;;;0.67;90.35;96859.56;221245;1274;22979;-77
2022/03/31 22:11:44;;;;;;;23.30;16.10;;;;;;;0.65;90.41;96861.11;221128;1273;22601;-75
2022/03/31 22:16:59;;;;;;;27.70;18.10;;;;;;;0.63;90.49;96856.42;221120;1273;24823;-76
2022/03/31 22:22:11;;;;;;;23.20;17.10;;;;;;;0.66;90.44;96852.08;221318;1273;25870;-74
2022/03/31 22:27:16;;;;;;;27.50;19.60;;;;;;;0.65;90.44;96852.46;221212;1273;22672;-76
2022/03/31 22:32:19;;;;;;;18.20;13.80;;;;;;;0.62;90.29;96845.78;221303;1273;22564;-75
2022/03/31 22:37:21;;;;;;;27.50;21.00;;;;;;;0.63;90.53;96843.56;220990;1273;22597;-76
2022/03/31 22:42:24;;;;;;;27.80;20.70;;;;;;;0.66;90.47;96839.91;221143;1273;22530;-77
2022/03/31 22:47:26;;;;;;;16.20;13.10;;;;;;;0.66;90.47;96835.80;221056;1273;22613;-76
2022/03/31 22:52:40;;;;;;;24.80;18.30;;;;;;;0.65;90.54;96833.79;221101;1273;23826;-75
2022/03/31 22:58:03;;;;;;;29.50;24.20;;;;;;;0.66;90.37;96828.36;221259;1273;24180;-75
2022/03/31 23:03:06;;;;;;;29.10;22.90;;;;;;;0.65;90.67;96822.32;221150;1274;22570;-76
2022/03/31 23:08:13;;;;;;;18.90;14.40;;;;;;;0.70;91.05;96819.39;221223;1273;24158;-76
2022/03/31 23:13:19;;;;;;;15.50;12.30;;;;;;;0.68;90.73;96819.39;221032;1273;23926;-76
2022/03/31 23:18:26;;;;;;;19.50;15.80;;;;;;;0.68;90.61;96813.48;220823;1274;24228;-75
2022/03/31 23:23:28;;;;;;;23.90;18.70;;;;;;;0.68;90.82;96817.48;220832;1274;24196;-76
2022/03/31 23:28:39;;;;;;;21.80;17.20;;;;;;;0.70;90.71;96813.91;220707;1276;25218;-76
2022/03/31 23:33:44;;;;;;;19.40;14.00;;;;;;;0.69;90.72;96811.59;220945;1274;22485;-76
2022/03/31 23:38:47;;;;;;;24.70;19.10;;;;;;;0.65;90.62;96809.92;220816;1274;23513;-76
2022/03/31 23:44:01;;;;;;;21.90;16.90;;;;;;;0.63;90.70;96808.66;220858;1274;23298;-75
2022/03/31 23:49:06;;;;;;;16.30;12.80;;;;;;;0.62;90.91;96805.30;221040;1274;22492;-75
2022/03/31 23:54:12;;;;;;;26.90;19.60;;;;;;;0.59;90.92;96799.80;220679;1275;24360;-75
2022/03/31 23:59:14;;;;;;;19.90;14.40;;;;;;;0.56;90.90;96791.59;220844;1273;24168;-76
